sensor_id;sensor_type;location;lat;lon;timestamp;temperature;humidity
2439;DHT22;14509;47.992;7.848;2024-03-17T00:00:32;17.50;56.20
2439;DHT22;14509;47.992;7.848;2024-03-17T00:02:34;16.40;55.20
2439;DHT22;14509;47.992;7.848;2024-03-17T00:04:35;16.20;55.10
2439;DHT22;14509;47.992;7.848;2024-03-17T00:06:39;16.30;55.40
2439;DHT22;14509;47.992;7.848;2024-03-17T00:08:39;16.40;55.30
2439;DHT22;14509;47.992;7.848;2024-03-17T00:10:41;16.50;55.40
2439;DHT22;14509;47.992;7.848;2024-03-17T00:12:42;16.40;55.30
2439;DHT22;14509;47.992;7.848;2024-03-17T00:14:44;16.60;55.30
2439;DHT22;14509;47.992;7.848;2024-03-17T00:16:45;16.40;55.10
2439;DHT22;14509;47.992;7.848;2024-03-17T00:18:47;17.70;56.20
2439;DHT22;14509;47.992;7.848;2024-03-17T00:20:48;16.40;55.00
2439;DHT22;14509;47.992;7.848;2024-03-17T00:22:52;16.20;54.90
2439;DHT22;14509;47.992;7.848;2024-03-17T00:24:52;16.90;55.50
2439;DHT22;14509;47.992;7.848;2024-03-17T00:26:54;16.20;55.20
2439;DHT22;14509;47.992;7.848;2024-03-17T00:28:55;16.20;55.10
2439;DHT22;14509;47.992;7.848;2024-03-17T00:30:57;16.20;55.30
2439;DHT22;14509;47.992;7.848;2024-03-17T00:32:59;16.30;55.40
2439;DHT22;14509;47.992;7.848;2024-03-17T00:35:01;16.40;55.40
2439;DHT22;14509;47.992;7.848;2024-03-17T00:37:02;17.40;56.10
2439;DHT22;14509;47.992;7.848;2024-03-17T00:39:05;16.30;55.90
2439;DHT22;14509;47.992;7.848;2024-03-17T00:41:06;16.40;55.10
2439;DHT22;14509;47.992;7.848;2024-03-17T00:43:08;17.00;55.70
2439;DHT22;14509;47.992;7.848;2024-03-17T00:45:10;16.30;55.10
2439;DHT22;14509;47.992;7.848;2024-03-17T00:47:13;17.30;56.10
2439;DHT22;14509;47.992;7.848;2024-03-17T00:49:13;16.60;55.20
2439;DHT22;14509;47.992;7.848;2024-03-17T00:51:15;17.30;55.70
2439;DHT22;14509;47.992;7.848;2024-03-17T00:53:16;16.30;55.00
2439;DHT22;14509;47.992;7.848;2024-03-17T00:55:20;17.50;56.00
2439;DHT22;14509;47.992;7.848;2024-03-17T00:57:20;16.20;54.90
2439;DHT22;14509;47.992;7.848;2024-03-17T00:59:22;16.60;55.30
2439;DHT22;14509;47.992;7.848;2024-03-17T01:01:23;16.20;55.10
2439;DHT22;14509;47.992;7.848;2024-03-17T01:03:26;16.10;55.10
2439;DHT22;14509;47.992;7.848;2024-03-17T01:05:28;16.60;55.60
2439;DHT22;14509;47.992;7.848;2024-03-17T01:07:30;16.20;55.30
2439;DHT22;14509;47.992;7.848;2024-03-17T01:09:31;16.20;55.20
2439;DHT22;14509;47.992;7.848;2024-03-17T01:11:34;16.10;55.40
2439;DHT22;14509;47.992;7.848;2024-03-17T01:13:35;16.10;55.40
2439;DHT22;14509;47.992;7.848;2024-03-17T01:15:42;16.00;55.50
2439;DHT22;14509;47.992;7.848;2024-03-17T01:17:43;16.00;55.40
2439;DHT22;14509;47.992;7.848;2024-03-17T01:19:45;15.80;55.30
2439;DHT22;14509;47.992;7.848;2024-03-17T01:21:46;16.00;55.40
2439;DHT22;14509;47.992;7.848;2024-03-17T01:23:48;16.00;55.70
2439;DHT22;14509;47.992;7.848;2024-03-17T01:25:49;15.90;55.40
2439;DHT22;14509;47.992;7.848;2024-03-17T01:27:52;16.70;56.10
2439;DHT22;14509;47.992;7.848;2024-03-17T01:29:53;17.50;56.60
2439;DHT22;14509;47.992;7.848;2024-03-17T01:31:55;16.50;56.00
2439;DHT22;14509;47.992;7.848;2024-03-17T01:33:56;16.00;55.70
2439;DHT22;14509;47.992;7.848;2024-03-17T01:35:58;17.00;56.50
2439;DHT22;14509;47.992;7.848;2024-03-17T01:37:59;15.90;55.70
2439;DHT22;14509;47.992;7.848;2024-03-17T01:40:01;15.90;55.70
2439;DHT22;14509;47.992;7.848;2024-03-17T01:42:02;15.80;55.60
2439;DHT22;14509;47.992;7.848;2024-03-17T01:44:05;15.80;55.70
2439;DHT22;14509;47.992;7.848;2024-03-17T01:46:12;15.70;55.90
2439;DHT22;14509;47.992;7.848;2024-03-17T01:48:15;15.70;56.10
2439;DHT22;14509;47.992;7.848;2024-03-17T01:50:18;15.70;56.20
2439;DHT22;14509;47.992;7.848;2024-03-17T01:52:25;16.80;57.10
2439;DHT22;14509;47.992;7.848;2024-03-17T01:54:26;15.70;56.40
2439;DHT22;14509;47.992;7.848;2024-03-17T01:56:28;15.70;56.50
2439;DHT22;14509;47.992;7.848;2024-03-17T01:58:30;15.70;56.40
2439;DHT22;14509;47.992;7.848;2024-03-17T02:00:33;15.70;56.50
2439;DHT22;14509;47.992;7.848;2024-03-17T02:02:36;15.60;56.40
2439;DHT22;14509;47.992;7.848;2024-03-17T02:04:38;15.60;56.40
2439;DHT22;14509;47.992;7.848;2024-03-17T02:06:39;15.70;56.50
2439;DHT22;14509;47.992;7.848;2024-03-17T02:08:48;15.60;56.50
2439;DHT22;14509;47.992;7.848;2024-03-17T02:10:52;15.60;56.60
2439;DHT22;14509;47.992;7.848;2024-03-17T02:12:54;15.60;56.80
2439;DHT22;14509;47.992;7.848;2024-03-17T02:14:56;15.50;56.70
2439;DHT22;14509;47.992;7.848;2024-03-17T02:16:59;15.50;56.80
2439;DHT22;14509;47.992;7.848;2024-03-17T02:19:00;15.50;56.80
2439;DHT22;14509;47.992;7.848;2024-03-17T02:21:02;16.70;57.60
2439;DHT22;14509;47.992;7.848;2024-03-17T02:23:04;15.30;56.60
2439;DHT22;14509;47.992;7.848;2024-03-17T02:25:07;15.80;57.20
2439;DHT22;14509;47.992;7.848;2024-03-17T02:27:08;15.20;57.00
2439;DHT22;14509;47.992;7.848;2024-03-17T02:29:10;15.20;57.10
2439;DHT22;14509;47.992;7.848;2024-03-17T02:31:12;15.10;57.10
2439;DHT22;14509;47.992;7.848;2024-03-17T02:33:14;15.00;57.20
2439;DHT22;14509;47.992;7.848;2024-03-17T02:35:15;16.60;58.50
2439;DHT22;14509;47.992;7.848;2024-03-17T02:37:17;15.60;57.80
2439;DHT22;14509;47.992;7.848;2024-03-17T02:39:19;14.80;57.30
2439;DHT22;14509;47.992;7.848;2024-03-17T02:41:35;14.80;57.60
2439;DHT22;14509;47.992;7.848;2024-03-17T02:43:37;16.00;58.60
2439;DHT22;14509;47.992;7.848;2024-03-17T02:45:38;14.30;57.50
2439;DHT22;14509;47.992;7.848;2024-03-17T02:47:40;15.90;58.90
2439;DHT22;14509;47.992;7.848;2024-03-17T02:53:05;14.60;58.20
2439;DHT22;14509;47.992;7.848;2024-03-17T02:55:08;14.40;58.40
2439;DHT22;14509;47.992;7.848;2024-03-17T02:57:10;14.40;58.50
2439;DHT22;14509;47.992;7.848;2024-03-17T02:59:12;14.30;58.40
2439;DHT22;14509;47.992;7.848;2024-03-17T03:01:14;14.30;58.50
2439;DHT22;14509;47.992;7.848;2024-03-17T03:03:15;14.30;58.60
2439;DHT22;14509;47.992;7.848;2024-03-17T03:05:17;14.80;59.80
2439;DHT22;14509;47.992;7.848;2024-03-17T03:07:19;15.20;59.70
2439;DHT22;14509;47.992;7.848;2024-03-17T03:09:21;14.20;59.00
2439;DHT22;14509;47.992;7.848;2024-03-17T03:11:28;14.20;59.00
2439;DHT22;14509;47.992;7.848;2024-03-17T03:13:28;14.90;59.60
2439;DHT22;14509;47.992;7.848;2024-03-17T03:15:31;14.20;59.00
2439;DHT22;14509;47.992;7.848;2024-03-17T03:17:33;15.00;59.90
2439;DHT22;14509;47.992;7.848;2024-03-17T03:19:35;14.20;59.10
2439;DHT22;14509;47.992;7.848;2024-03-17T03:21:37;14.20;59.00
2439;DHT22;14509;47.992;7.848;2024-03-17T03:23:39;14.10;58.90
2439;DHT22;14509;47.992;7.848;2024-03-17T03:25:40;14.10;58.80
2439;DHT22;14509;47.992;7.848;2024-03-17T03:27:43;14.10;58.70
2439;DHT22;14509;47.992;7.848;2024-03-17T03:29:44;14.00;58.60
2439;DHT22;14509;47.992;7.848;2024-03-17T03:31:46;14.00;58.60
2439;DHT22;14509;47.992;7.848;2024-03-17T03:33:48;13.90;58.60
2439;DHT22;14509;47.992;7.848;2024-03-17T03:35:49;13.90;59.30
2439;DHT22;14509;47.992;7.848;2024-03-17T03:37:51;13.80;58.90
2439;DHT22;14509;47.992;7.848;2024-03-17T03:39:52;14.10;58.90
2439;DHT22;14509;47.992;7.848;2024-03-17T03:41:54;13.80;58.80
2439;DHT22;14509;47.992;7.848;2024-03-17T03:43:56;13.60;58.60
2439;DHT22;14509;47.992;7.848;2024-03-17T03:45:59;13.60;58.70
2439;DHT22;14509;47.992;7.848;2024-03-17T03:48:01;13.60;58.70
2439;DHT22;14509;47.992;7.848;2024-03-17T03:50:05;14.90;59.80
2439;DHT22;14509;47.992;7.848;2024-03-17T03:52:06;13.40;58.90
2439;DHT22;14509;47.992;7.848;2024-03-17T03:54:08;13.80;59.20
2439;DHT22;14509;47.992;7.848;2024-03-17T03:56:09;13.40;58.90
2439;DHT22;14509;47.992;7.848;2024-03-17T03:58:10;13.40;58.90
2439;DHT22;14509;47.992;7.848;2024-03-17T04:00:15;13.40;59.00
2439;DHT22;14509;47.992;7.848;2024-03-17T04:02:19;13.30;59.00
2439;DHT22;14509;47.992;7.848;2024-03-17T04:04:21;14.40;60.00
2439;DHT22;14509;47.992;7.848;2024-03-17T04:06:23;13.30;59.10
2439;DHT22;14509;47.992;7.848;2024-03-17T04:08:25;13.20;59.00
2439;DHT22;14509;47.992;7.848;2024-03-17T04:10:26;15.10;60.70
2439;DHT22;14509;47.992;7.848;2024-03-17T04:12:28;13.20;59.10
2439;DHT22;14509;47.992;7.848;2024-03-17T04:14:31;13.10;59.20
2439;DHT22;14509;47.992;7.848;2024-03-17T04:16:34;13.60;59.50
2439;DHT22;14509;47.992;7.848;2024-03-17T04:18:36;13.00;59.10
2439;DHT22;14509;47.992;7.848;2024-03-17T04:20:40;13.00;59.30
2439;DHT22;14509;47.992;7.848;2024-03-17T04:22:42;13.00;59.50
2439;DHT22;14509;47.992;7.848;2024-03-17T04:24:43;13.00;59.60
2439;DHT22;14509;47.992;7.848;2024-03-17T04:26:45;14.20;60.70
2439;DHT22;14509;47.992;7.848;2024-03-17T04:28:46;12.90;59.50
2439;DHT22;14509;47.992;7.848;2024-03-17T04:30:48;13.00;59.60
2439;DHT22;14509;47.992;7.848;2024-03-17T04:32:51;12.90;59.70
2439;DHT22;14509;47.992;7.848;2024-03-17T04:34:53;13.00;60.00
2439;DHT22;14509;47.992;7.848;2024-03-17T04:36:54;12.90;59.80
2439;DHT22;14509;47.992;7.848;2024-03-17T04:38:56;12.90;60.10
2439;DHT22;14509;47.992;7.848;2024-03-17T04:40:59;13.00;60.40
2439;DHT22;14509;47.992;7.848;2024-03-17T04:43:05;13.90;61.50
2439;DHT22;14509;47.992;7.848;2024-03-17T04:45:08;12.90;60.20
2439;DHT22;14509;47.992;7.848;2024-03-17T04:47:11;12.90;60.40
2439;DHT22;14509;47.992;7.848;2024-03-17T04:49:13;14.20;61.90
2439;DHT22;14509;47.992;7.848;2024-03-17T04:51:15;12.90;60.40
2439;DHT22;14509;47.992;7.848;2024-03-17T04:53:17;13.10;60.70
2439;DHT22;14509;47.992;7.848;2024-03-17T04:55:18;12.90;60.40
2439;DHT22;14509;47.992;7.848;2024-03-17T04:57:20;13.00;60.60
2439;DHT22;14509;47.992;7.848;2024-03-17T04:59:22;13.00;60.70
2439;DHT22;14509;47.992;7.848;2024-03-17T05:01:24;12.80;60.20
2439;DHT22;14509;47.992;7.848;2024-03-17T05:03:25;12.90;60.60
2439;DHT22;14509;47.992;7.848;2024-03-17T05:05:28;12.90;60.70
2439;DHT22;14509;47.992;7.848;2024-03-17T05:07:30;13.00;60.90
2439;DHT22;14509;47.992;7.848;2024-03-17T05:09:32;14.40;62.30
2439;DHT22;14509;47.992;7.848;2024-03-17T05:11:33;13.00;60.70
2439;DHT22;14509;47.992;7.848;2024-03-17T05:13:36;12.90;60.60
2439;DHT22;14509;47.992;7.848;2024-03-17T05:15:39;14.80;62.50
2439;DHT22;14509;47.992;7.848;2024-03-17T05:17:41;13.60;61.90
2439;DHT22;14509;47.992;7.848;2024-03-17T05:19:43;14.30;61.70
2439;DHT22;14509;47.992;7.848;2024-03-17T05:21:46;12.90;60.10
2439;DHT22;14509;47.992;7.848;2024-03-17T05:23:48;14.90;62.30
2439;DHT22;14509;47.992;7.848;2024-03-17T05:25:51;12.80;60.20
2439;DHT22;14509;47.992;7.848;2024-03-17T05:27:53;13.50;61.10
2439;DHT22;14509;47.992;7.848;2024-03-17T05:29:55;14.40;61.90
2439;DHT22;14509;47.992;7.848;2024-03-17T05:31:56;12.90;60.40
2439;DHT22;14509;47.992;7.848;2024-03-17T05:33:58;12.80;60.30
2439;DHT22;14509;47.992;7.848;2024-03-17T05:36:01;12.80;60.30
2439;DHT22;14509;47.992;7.848;2024-03-17T05:38:05;13.50;61.30
2439;DHT22;14509;47.992;7.848;2024-03-17T05:40:10;14.70;62.50
2439;DHT22;14509;47.992;7.848;2024-03-17T05:42:13;12.90;60.70
2439;DHT22;14509;47.992;7.848;2024-03-17T05:44:15;12.80;60.50
2439;DHT22;14509;47.992;7.848;2024-03-17T05:46:17;12.80;60.30
2439;DHT22;14509;47.992;7.848;2024-03-17T05:48:19;12.90;60.30
2439;DHT22;14509;47.992;7.848;2024-03-17T05:50:20;12.90;60.40
2439;DHT22;14509;47.992;7.848;2024-03-17T05:52:22;12.80;60.30
2439;DHT22;14509;47.992;7.848;2024-03-17T05:54:25;12.90;60.20
2439;DHT22;14509;47.992;7.848;2024-03-17T05:56:27;13.20;60.60
2439;DHT22;14509;47.992;7.848;2024-03-17T05:58:29;12.90;60.10
2439;DHT22;14509;47.992;7.848;2024-03-17T06:00:30;12.90;60.30
2439;DHT22;14509;47.992;7.848;2024-03-17T06:02:32;12.90;60.10
2439;DHT22;14509;47.992;7.848;2024-03-17T06:04:34;13.60;61.10
2439;DHT22;14509;47.992;7.848;2024-03-17T06:06:38;13.00;60.50
2439;DHT22;14509;47.992;7.848;2024-03-17T06:08:40;13.00;60.20
2439;DHT22;14509;47.992;7.848;2024-03-17T06:10:45;13.00;60.30
2439;DHT22;14509;47.992;7.848;2024-03-17T06:12:48;13.00;60.40
2439;DHT22;14509;47.992;7.848;2024-03-17T06:14:49;14.00;61.10
2439;DHT22;14509;47.992;7.848;2024-03-17T06:16:52;13.00;60.00
2439;DHT22;14509;47.992;7.848;2024-03-17T06:18:53;13.10;59.80
2439;DHT22;14509;47.992;7.848;2024-03-17T06:20:55;13.20;60.00
2439;DHT22;14509;47.992;7.848;2024-03-17T06:22:58;13.10;60.10
2439;DHT22;14509;47.992;7.848;2024-03-17T06:25:00;13.40;60.30
2439;DHT22;14509;47.992;7.848;2024-03-17T06:27:03;13.60;60.50
2439;DHT22;14509;47.992;7.848;2024-03-17T06:29:05;13.10;59.60
2439;DHT22;14509;47.992;7.848;2024-03-17T06:31:08;13.20;60.20
2439;DHT22;14509;47.992;7.848;2024-03-17T06:33:12;13.20;60.10
2439;DHT22;14509;47.992;7.848;2024-03-17T06:35:14;14.20;61.20
2439;DHT22;14509;47.992;7.848;2024-03-17T06:37:18;13.30;60.70
2439;DHT22;14509;47.992;7.848;2024-03-17T06:39:19;13.70;60.30
2439;DHT22;14509;47.992;7.848;2024-03-17T06:41:21;13.30;60.00
2439;DHT22;14509;47.992;7.848;2024-03-17T06:43:25;13.40;60.20
2439;DHT22;14509;47.992;7.848;2024-03-17T06:45:26;14.30;60.70
2439;DHT22;14509;47.992;7.848;2024-03-17T06:47:27;13.60;59.70
2439;DHT22;14509;47.992;7.848;2024-03-17T06:49:29;14.90;61.00
2439;DHT22;14509;47.992;7.848;2024-03-17T06:51:31;13.60;59.60
2439;DHT22;14509;47.992;7.848;2024-03-17T06:53:33;15.50;61.40
2439;DHT22;14509;47.992;7.848;2024-03-17T06:55:35;13.90;59.50
2439;DHT22;14509;47.992;7.848;2024-03-17T06:57:37;15.10;60.50
2439;DHT22;14509;47.992;7.848;2024-03-17T06:59:40;14.30;59.70
2439;DHT22;14509;47.992;7.848;2024-03-17T07:01:42;14.50;59.50
2439;DHT22;14509;47.992;7.848;2024-03-17T07:03:43;14.00;58.50
2439;DHT22;14509;47.992;7.848;2024-03-17T07:05:51;14.00;58.80
2439;DHT22;14509;47.992;7.848;2024-03-17T07:07:52;14.20;59.20
2439;DHT22;14509;47.992;7.848;2024-03-17T07:09:54;15.20;59.80
2439;DHT22;14509;47.992;7.848;2024-03-17T07:11:55;14.40;59.00
2439;DHT22;14509;47.992;7.848;2024-03-17T07:13:57;14.50;58.70
2439;DHT22;14509;47.992;7.848;2024-03-17T07:16:00;14.60;58.40
2439;DHT22;14509;47.992;7.848;2024-03-17T07:18:02;14.60;58.20
2439;DHT22;14509;47.992;7.848;2024-03-17T07:20:04;14.70;57.90
2439;DHT22;14509;47.992;7.848;2024-03-17T07:22:09;14.80;58.00
2439;DHT22;14509;47.992;7.848;2024-03-17T07:24:11;14.90;57.60
2439;DHT22;14509;47.992;7.848;2024-03-17T07:26:11;15.10;57.50
2439;DHT22;14509;47.992;7.848;2024-03-17T07:28:14;15.20;56.90
2439;DHT22;14509;47.992;7.848;2024-03-17T07:30:15;15.30;56.70
2439;DHT22;14509;47.992;7.848;2024-03-17T07:32:19;15.40;56.40
2439;DHT22;14509;47.992;7.848;2024-03-17T07:34:19;16.90;56.90
2439;DHT22;14509;47.992;7.848;2024-03-17T07:36:21;16.60;56.40
2439;DHT22;14509;47.992;7.848;2024-03-17T07:38:24;15.60;55.30
2439;DHT22;14509;47.992;7.848;2024-03-17T07:40:26;15.70;55.20
2439;DHT22;14509;47.992;7.848;2024-03-17T07:42:28;15.80;55.00
2439;DHT22;14509;47.992;7.848;2024-03-17T07:44:31;15.80;54.60
2439;DHT22;14509;47.992;7.848;2024-03-17T07:46:34;17.10;55.60
2439;DHT22;14509;47.992;7.848;2024-03-17T07:48:39;15.90;54.50
2439;DHT22;14509;47.992;7.848;2024-03-17T07:50:41;16.20;54.90
2439;DHT22;14509;47.992;7.848;2024-03-17T07:52:42;16.00;54.50
2439;DHT22;14509;47.992;7.848;2024-03-17T07:54:45;17.00;55.20
2439;DHT22;14509;47.992;7.848;2024-03-17T07:56:47;16.20;54.40
2439;DHT22;14509;47.992;7.848;2024-03-17T07:58:49;17.80;55.40
2439;DHT22;14509;47.992;7.848;2024-03-17T08:00:51;16.50;54.10
2439;DHT22;14509;47.992;7.848;2024-03-17T08:02:53;16.70;54.00
2439;DHT22;14509;47.992;7.848;2024-03-17T08:04:56;16.90;53.70
2439;DHT22;14509;47.992;7.848;2024-03-17T08:06:58;17.00;53.10
2439;DHT22;14509;47.992;7.848;2024-03-17T08:09:00;18.90;54.00
2439;DHT22;14509;47.992;7.848;2024-03-17T08:11:02;17.30;52.40
2439;DHT22;14509;47.992;7.848;2024-03-17T08:13:04;17.50;52.30
2439;DHT22;14509;47.992;7.848;2024-03-17T08:15:06;17.70;51.80
2439;DHT22;14509;47.992;7.848;2024-03-17T08:17:09;17.90;51.50
2439;DHT22;14509;47.992;7.848;2024-03-17T08:19:11;18.40;51.10
2439;DHT22;14509;47.992;7.848;2024-03-17T08:21:14;18.90;50.80
2439;DHT22;14509;47.992;7.848;2024-03-17T08:23:16;18.60;50.20
2439;DHT22;14509;47.992;7.848;2024-03-17T08:25:18;18.50;49.70
2439;DHT22;14509;47.992;7.848;2024-03-17T08:27:20;18.60;49.50
2439;DHT22;14509;47.992;7.848;2024-03-17T08:29:21;18.70;49.20
2439;DHT22;14509;47.992;7.848;2024-03-17T08:31:23;18.80;49.10
2439;DHT22;14509;47.992;7.848;2024-03-17T08:33:26;19.00;48.90
2439;DHT22;14509;47.992;7.848;2024-03-17T08:35:27;19.10;48.60
2439;DHT22;14509;47.992;7.848;2024-03-17T08:37:30;20.10;48.90
2439;DHT22;14509;47.992;7.848;2024-03-17T08:39:32;19.40;47.80
2439;DHT22;14509;47.992;7.848;2024-03-17T08:41:34;19.60;47.60
2439;DHT22;14509;47.992;7.848;2024-03-17T08:43:37;19.70;47.00
2439;DHT22;14509;47.992;7.848;2024-03-17T08:45:38;19.80;46.50
2439;DHT22;14509;47.992;7.848;2024-03-17T08:47:40;19.90;46.20
2439;DHT22;14509;47.992;7.848;2024-03-17T08:49:42;20.10;46.00
2439;DHT22;14509;47.992;7.848;2024-03-17T08:51:44;20.10;45.90
2439;DHT22;14509;47.992;7.848;2024-03-17T08:53:47;21.30;46.30
2439;DHT22;14509;47.992;7.848;2024-03-17T08:55:49;20.30;45.40
2439;DHT22;14509;47.992;7.848;2024-03-17T08:57:51;20.30;45.50
2439;DHT22;14509;47.992;7.848;2024-03-17T08:59:53;21.10;46.00
2439;DHT22;14509;47.992;7.848;2024-03-17T09:01:55;20.20;45.30
2439;DHT22;14509;47.992;7.848;2024-03-17T09:03:56;20.20;45.50
2439;DHT22;14509;47.992;7.848;2024-03-17T09:06:02;20.90;46.00
2439;DHT22;14509;47.992;7.848;2024-03-17T09:08:03;20.10;45.80
2439;DHT22;14509;47.992;7.848;2024-03-17T09:10:07;20.10;45.60
2439;DHT22;14509;47.992;7.848;2024-03-17T09:12:12;20.10;46.50
2439;DHT22;14509;47.992;7.848;2024-03-17T09:14:14;20.10;46.10
2439;DHT22;14509;47.992;7.848;2024-03-17T09:16:16;20.20;46.10
2439;DHT22;14509;47.992;7.848;2024-03-17T09:18:19;20.10;45.90
2439;DHT22;14509;47.992;7.848;2024-03-17T09:20:20;20.20;45.90
2439;DHT22;14509;47.992;7.848;2024-03-17T09:22:22;20.20;45.80
2439;DHT22;14509;47.992;7.848;2024-03-17T09:24:24;20.20;46.10
2439;DHT22;14509;47.992;7.848;2024-03-17T09:26:27;20.30;46.00
2439;DHT22;14509;47.992;7.848;2024-03-17T09:28:29;20.30;46.00
2439;DHT22;14509;47.992;7.848;2024-03-17T09:30:30;20.70;46.30
2439;DHT22;14509;47.992;7.848;2024-03-17T09:32:32;20.30;45.70
2439;DHT22;14509;47.992;7.848;2024-03-17T09:34:34;20.30;45.40
2439;DHT22;14509;47.992;7.848;2024-03-17T09:36:36;20.30;45.20
2439;DHT22;14509;47.992;7.848;2024-03-17T09:38:38;20.30;45.40
2439;DHT22;14509;47.992;7.848;2024-03-17T09:40:46;20.30;45.20
2439;DHT22;14509;47.992;7.848;2024-03-17T09:42:48;20.40;45.10
2439;DHT22;14509;47.992;7.848;2024-03-17T09:44:50;20.40;45.20
2439;DHT22;14509;47.992;7.848;2024-03-17T09:46:54;20.40;45.00
2439;DHT22;14509;47.992;7.848;2024-03-17T09:48:55;20.40;44.60
2439;DHT22;14509;47.992;7.848;2024-03-17T09:50:59;20.50;44.60
2439;DHT22;14509;47.992;7.848;2024-03-17T09:53:02;20.50;44.60
2439;DHT22;14509;47.992;7.848;2024-03-17T09:55:09;20.60;44.60
2439;DHT22;14509;47.992;7.848;2024-03-17T09:57:16;20.50;44.30
2439;DHT22;14509;47.992;7.848;2024-03-17T09:59:20;20.60;44.50
2439;DHT22;14509;47.992;7.848;2024-03-17T10:01:22;20.60;44.90
2439;DHT22;14509;47.992;7.848;2024-03-17T10:03:42;19.30;43.00
2439;DHT22;14509;47.992;7.848;2024-03-17T10:05:45;20.70;44.40
2439;DHT22;14509;47.992;7.848;2024-03-17T10:07:47;20.60;44.20
2439;DHT22;14509;47.992;7.848;2024-03-17T10:09:49;21.30;44.80
2439;DHT22;14509;47.992;7.848;2024-03-17T10:11:51;21.90;45.30
2439;DHT22;14509;47.992;7.848;2024-03-17T10:14:00;20.60;44.70
2439;DHT22;14509;47.992;7.848;2024-03-17T10:16:05;20.40;44.90
2439;DHT22;14509;47.992;7.848;2024-03-17T10:18:20;20.30;44.80
2439;DHT22;14509;47.992;7.848;2024-03-17T10:20:24;20.40;45.10
2439;DHT22;14509;47.992;7.848;2024-03-17T10:22:27;20.30;45.10
2439;DHT22;14509;47.992;7.848;2024-03-17T10:24:28;20.30;44.90
2439;DHT22;14509;47.992;7.848;2024-03-17T10:26:31;21.30;45.70
2439;DHT22;14509;47.992;7.848;2024-03-17T10:28:32;20.30;44.70
2439;DHT22;14509;47.992;7.848;2024-03-17T10:30:35;20.30;44.90
2439;DHT22;14509;47.992;7.848;2024-03-17T10:32:38;20.30;45.00
2439;DHT22;14509;47.992;7.848;2024-03-17T10:34:41;20.30;44.90
2439;DHT22;14509;47.992;7.848;2024-03-17T10:36:43;20.30;44.90
2439;DHT22;14509;47.992;7.848;2024-03-17T10:38:51;20.30;44.90
2439;DHT22;14509;47.992;7.848;2024-03-17T10:40:54;20.40;45.20
2439;DHT22;14509;47.992;7.848;2024-03-17T10:42:57;21.50;45.90
2439;DHT22;14509;47.992;7.848;2024-03-17T10:44:58;20.40;45.10
2439;DHT22;14509;47.992;7.848;2024-03-17T10:47:02;21.10;45.70
2439;DHT22;14509;47.992;7.848;2024-03-17T10:49:13;20.50;45.00
2439;DHT22;14509;47.992;7.848;2024-03-17T10:51:17;20.70;45.00
2439;DHT22;14509;47.992;7.848;2024-03-17T10:53:20;20.50;45.50
2439;DHT22;14509;47.992;7.848;2024-03-17T10:55:27;20.60;44.80
2439;DHT22;14509;47.992;7.848;2024-03-17T10:57:32;20.60;44.70
2439;DHT22;14509;47.992;7.848;2024-03-17T10:59:39;20.70;44.80
2439;DHT22;14509;47.992;7.848;2024-03-17T11:01:42;21.50;45.70
2439;DHT22;14509;47.992;7.848;2024-03-17T11:03:46;21.00;44.50
2439;DHT22;14509;47.992;7.848;2024-03-17T11:05:52;21.00;44.30
2439;DHT22;14509;47.992;7.848;2024-03-17T11:07:56;21.10;44.00
2439;DHT22;14509;47.992;7.848;2024-03-17T11:10:02;21.30;43.80
2439;DHT22;14509;47.992;7.848;2024-03-17T11:12:04;21.30;43.70
2439;DHT22;14509;47.992;7.848;2024-03-17T11:14:19;21.40;43.30
2439;DHT22;14509;47.992;7.848;2024-03-17T11:16:26;21.60;43.40
2439;DHT22;14509;47.992;7.848;2024-03-17T11:18:35;21.70;43.30
2439;DHT22;14509;47.992;7.848;2024-03-17T11:20:37;21.70;43.20
2439;DHT22;14509;47.992;7.848;2024-03-17T11:22:43;22.70;43.70
2439;DHT22;14509;47.992;7.848;2024-03-17T11:24:45;21.90;42.50
2439;DHT22;14509;47.992;7.848;2024-03-17T11:26:47;21.80;42.80
2439;DHT22;14509;47.992;7.848;2024-03-17T11:28:51;21.80;42.90
2439;DHT22;14509;47.992;7.848;2024-03-17T11:30:52;22.90;44.00
2439;DHT22;14509;47.992;7.848;2024-03-17T11:32:56;21.80;43.50
2439;DHT22;14509;47.992;7.848;2024-03-17T11:35:13;22.80;44.20
2439;DHT22;14509;47.992;7.848;2024-03-17T11:37:43;21.90;43.60
2439;DHT22;14509;47.992;7.848;2024-03-17T11:39:49;21.90;43.80
2439;DHT22;14509;47.992;7.848;2024-03-17T11:41:52;22.00;43.70
2439;DHT22;14509;47.992;7.848;2024-03-17T11:44:13;22.30;44.00
2439;DHT22;14509;47.992;7.848;2024-03-17T11:46:15;22.00;43.80
2439;DHT22;14509;47.992;7.848;2024-03-17T11:48:17;22.70;43.90
2439;DHT22;14509;47.992;7.848;2024-03-17T11:50:20;22.20;43.20
2439;DHT22;14509;47.992;7.848;2024-03-17T11:52:22;22.30;43.10
2439;DHT22;14509;47.992;7.848;2024-03-17T11:54:26;22.40;43.10
2439;DHT22;14509;47.992;7.848;2024-03-17T11:56:29;22.40;42.80
2439;DHT22;14509;47.992;7.848;2024-03-17T11:58:31;22.80;42.80
2439;DHT22;14509;47.992;7.848;2024-03-17T12:00:34;21.60;41.90
2439;DHT22;14509;47.992;7.848;2024-03-17T12:02:34;23.30;43.10
2439;DHT22;14509;47.992;7.848;2024-03-17T12:04:39;22.30;42.80
2439;DHT22;14509;47.992;7.848;2024-03-17T12:06:44;22.20;42.80
2439;DHT22;14509;47.992;7.848;2024-03-17T12:08:47;22.20;43.30
2439;DHT22;14509;47.992;7.848;2024-03-17T12:10:49;22.90;43.70
2439;DHT22;14509;47.992;7.848;2024-03-17T12:12:52;22.00;43.60
2439;DHT22;14509;47.992;7.848;2024-03-17T12:14:53;23.00;44.50
2439;DHT22;14509;47.992;7.848;2024-03-17T12:16:56;21.90;43.70
2439;DHT22;14509;47.992;7.848;2024-03-17T12:19:06;21.80;43.90
2439;DHT22;14509;47.992;7.848;2024-03-17T12:21:13;21.80;44.20
2439;DHT22;14509;47.992;7.848;2024-03-17T12:23:14;22.30;44.40
2439;DHT22;14509;47.992;7.848;2024-03-17T12:25:20;21.60;44.20
2439;DHT22;14509;47.992;7.848;2024-03-17T12:27:26;21.50;44.40
2439;DHT22;14509;47.992;7.848;2024-03-17T12:29:30;20.40;43.50
2439;DHT22;14509;47.992;7.848;2024-03-17T12:31:33;21.30;44.50
2439;DHT22;14509;47.992;7.848;2024-03-17T12:33:35;21.30;44.70
2439;DHT22;14509;47.992;7.848;2024-03-17T12:35:45;21.80;45.20
2439;DHT22;14509;47.992;7.848;2024-03-17T12:37:47;21.30;45.30
2439;DHT22;14509;47.992;7.848;2024-03-17T12:39:48;21.50;46.40
2439;DHT22;14509;47.992;7.848;2024-03-17T12:42:05;21.40;46.00
2439;DHT22;14509;47.992;7.848;2024-03-17T12:44:20;21.40;46.10
2439;DHT22;14509;47.992;7.848;2024-03-17T12:46:22;21.50;46.20
2439;DHT22;14509;47.992;7.848;2024-03-17T12:48:24;21.30;46.40
2439;DHT22;14509;47.992;7.848;2024-03-17T12:50:26;21.40;46.40
2439;DHT22;14509;47.992;7.848;2024-03-17T12:52:28;21.30;46.40
2439;DHT22;14509;47.992;7.848;2024-03-17T12:54:31;21.40;46.70
2439;DHT22;14509;47.992;7.848;2024-03-17T12:56:32;21.80;46.00
2439;DHT22;14509;47.992;7.848;2024-03-17T12:58:52;21.50;45.30
2439;DHT22;14509;47.992;7.848;2024-03-17T13:01:13;21.40;45.30
2439;DHT22;14509;47.992;7.848;2024-03-17T13:03:24;21.30;45.30
2439;DHT22;14509;47.992;7.848;2024-03-17T13:05:25;21.30;45.60
2439;DHT22;14509;47.992;7.848;2024-03-17T13:07:27;21.20;45.40
2439;DHT22;14509;47.992;7.848;2024-03-17T13:09:31;21.10;45.60
2439;DHT22;14509;47.992;7.848;2024-03-17T13:11:33;20.90;45.40